sensor_id;sensor_type;location;lat;lon;timestamp;P1;durP1;ratioP1;P2;durP2;ratioP2
68854;SDS011;55859;55.710;12.464;2022-07-29T00:14:01;1.73;;;1.38;;
68854;SDS011;55859;55.710;12.464;2022-07-29T00:16:27;2.35;;;1.52;;
68854;SDS011;55859;55.710;12.464;2022-07-29T00:18:52;3.17;;;1.60;;
68854;SDS011;55859;55.710;12.464;2022-07-29T00:21:17;5.97;;;1.90;;
68854;SDS011;55859;55.710;12.464;2022-07-29T00:23:43;1.43;;;1.20;;
68854;SDS011;55859;55.710;12.464;2022-07-29T00:26:08;3.60;;;1.20;;
68854;SDS011;55859;55.710;12.464;2022-07-29T00:28:33;3.00;;;1.20;;
68854;SDS011;55859;55.710;12.464;2022-07-29T00:30:59;3.28;;;1.50;;
68854;SDS011;55859;55.710;12.464;2022-07-29T00:33:24;1.73;;;1.58;;
68854;SDS011;55859;55.710;12.464;2022-07-29T00:35:49;1.65;;;1.52;;
68854;SDS011;55859;55.710;12.464;2022-07-29T00:38:15;2.28;;;1.40;;
68854;SDS011;55859;55.710;12.464;2022-07-29T00:40:43;1.77;;;1.42;;
68854;SDS011;55859;55.710;12.464;2022-07-29T00:43:10;2.78;;;1.40;;
68854;SDS011;55859;55.710;12.464;2022-07-29T00:45:37;4.75;;;1.45;;
68854;SDS011;55859;55.710;12.464;2022-07-29T00:48:02;1.88;;;1.20;;
68854;SDS011;55859;55.710;12.464;2022-07-29T00:50:29;3.17;;;1.50;;
68854;SDS011;55859;55.710;12.464;2022-07-29T00:52:56;3.42;;;1.60;;
68854;SDS011;55859;55.710;12.464;2022-07-29T00:55:21;7.22;;;3.17;;
68854;SDS011;55859;55.710;12.464;2022-07-29T00:57:47;3.88;;;1.73;;
68854;SDS011;55859;55.710;12.464;2022-07-29T01:00:17;2.45;;;1.77;;
68854;SDS011;55859;55.710;12.464;2022-07-29T01:02:44;4.07;;;1.60;;
68854;SDS011;55859;55.710;12.464;2022-07-29T01:05:13;5.50;;;2.03;;
68854;SDS011;55859;55.710;12.464;2022-07-29T01:07:39;5.72;;;1.83;;
68854;SDS011;55859;55.710;12.464;2022-07-29T01:10:06;10.75;;;2.20;;
68854;SDS011;55859;55.710;12.464;2022-07-29T01:12:34;6.07;;;1.50;;
68854;SDS011;55859;55.710;12.464;2022-07-29T01:15:02;11.73;;;2.15;;
68854;SDS011;55859;55.710;12.464;2022-07-29T01:20:03;2.60;;;1.50;;
68854;SDS011;55859;55.710;12.464;2022-07-29T01:28:29;3.80;;;1.60;;
68854;SDS011;55859;55.710;12.464;2022-07-29T01:31:12;3.60;;;2.30;;
68854;SDS011;55859;55.710;12.464;2022-07-29T01:33:43;5.38;;;2.00;;
68854;SDS011;55859;55.710;12.464;2022-07-29T01:36:33;5.70;;;2.00;;
68854;SDS011;55859;55.710;12.464;2022-07-29T01:39:10;5.60;;;2.03;;
68854;SDS011;55859;55.710;12.464;2022-07-29T01:41:40;2.63;;;1.83;;
68854;SDS011;55859;55.710;12.464;2022-07-29T01:44:15;5.70;;;1.80;;
68854;SDS011;55859;55.710;12.464;2022-07-29T01:47:05;8.18;;;1.52;;
68854;SDS011;55859;55.710;12.464;2022-07-29T01:49:36;2.90;;;1.67;;
68854;SDS011;55859;55.710;12.464;2022-07-29T01:52:11;2.15;;;1.33;;
68854;SDS011;55859;55.710;12.464;2022-07-29T01:54:42;2.50;;;1.48;;
68854;SDS011;55859;55.710;12.464;2022-07-29T01:57:14;8.82;;;1.48;;
68854;SDS011;55859;55.710;12.464;2022-07-29T01:59:45;2.88;;;1.27;;
68854;SDS011;55859;55.710;12.464;2022-07-29T02:02:13;2.78;;;1.30;;
68854;SDS011;55859;55.710;12.464;2022-07-29T02:04:41;3.00;;;1.45;;
68854;SDS011;55859;55.710;12.464;2022-07-29T02:07:10;8.43;;;1.67;;
68854;SDS011;55859;55.710;12.464;2022-07-29T02:09:40;1.40;;;1.30;;
68854;SDS011;55859;55.710;12.464;2022-07-29T02:12:07;1.80;;;1.30;;
68854;SDS011;55859;55.710;12.464;2022-07-29T02:14:36;2.22;;;1.25;;
68854;SDS011;55859;55.710;12.464;2022-07-29T02:17:04;3.83;;;1.40;;
68854;SDS011;55859;55.710;12.464;2022-07-29T02:19:32;2.85;;;1.20;;
68854;SDS011;55859;55.710;12.464;2022-07-29T02:21:58;2.40;;;1.17;;
68854;SDS011;55859;55.710;12.464;2022-07-29T02:24:25;2.20;;;0.93;;
68854;SDS011;55859;55.710;12.464;2022-07-29T02:26:52;1.20;;;1.10;;
68854;SDS011;55859;55.710;12.464;2022-07-29T02:29:23;8.02;;;1.55;;
68854;SDS011;55859;55.710;12.464;2022-07-29T02:31:51;3.90;;;1.45;;
68854;SDS011;55859;55.710;12.464;2022-07-29T02:34:18;3.60;;;1.55;;
68854;SDS011;55859;55.710;12.464;2022-07-29T02:36:45;2.33;;;1.30;;
68854;SDS011;55859;55.710;12.464;2022-07-29T02:39:12;2.15;;;1.40;;
68854;SDS011;55859;55.710;12.464;2022-07-29T02:41:52;1.38;;;1.20;;
68854;SDS011;55859;55.710;12.464;2022-07-29T02:44:23;2.15;;;1.27;;
68854;SDS011;55859;55.710;12.464;2022-07-29T02:51:49;1.20;;;1.00;;
68854;SDS011;55859;55.710;12.464;2022-07-29T02:57:04;2.15;;;1.23;;
68854;SDS011;55859;55.710;12.464;2022-07-29T02:59:45;6.07;;;1.05;;
68854;SDS011;55859;55.710;12.464;2022-07-29T03:02:14;1.92;;;1.20;;
68854;SDS011;55859;55.710;12.464;2022-07-29T03:04:41;9.25;;;1.27;;
68854;SDS011;55859;55.710;12.464;2022-07-29T03:07:09;1.63;;;1.20;;
68854;SDS011;55859;55.710;12.464;2022-07-29T03:09:38;2.47;;;1.20;;
68854;SDS011;55859;55.710;12.464;2022-07-29T03:12:06;2.22;;;1.23;;
68854;SDS011;55859;55.710;12.464;2022-07-29T03:14:32;2.03;;;1.20;;
68854;SDS011;55859;55.710;12.464;2022-07-29T03:16:59;4.20;;;1.20;;
68854;SDS011;55859;55.710;12.464;2022-07-29T03:19:25;1.67;;;1.08;;
68854;SDS011;55859;55.710;12.464;2022-07-29T03:21:51;1.30;;;1.20;;
68854;SDS011;55859;55.710;12.464;2022-07-29T03:24:24;1.20;;;1.10;;
68854;SDS011;55859;55.710;12.464;2022-07-29T03:26:50;5.13;;;1.33;;
68854;SDS011;55859;55.710;12.464;2022-07-29T03:29:16;1.90;;;1.35;;
68854;SDS011;55859;55.710;12.464;2022-07-29T03:31:41;2.80;;;1.40;;
68854;SDS011;55859;55.710;12.464;2022-07-29T03:34:06;2.87;;;1.23;;
68854;SDS011;55859;55.710;12.464;2022-07-29T03:36:31;2.37;;;1.40;;
68854;SDS011;55859;55.710;12.464;2022-07-29T03:38:57;2.53;;;1.40;;
68854;SDS011;55859;55.710;12.464;2022-07-29T03:41:22;2.28;;;1.45;;
68854;SDS011;55859;55.710;12.464;2022-07-29T03:43:50;2.63;;;1.27;;
68854;SDS011;55859;55.710;12.464;2022-07-29T03:46:16;3.38;;;1.40;;
68854;SDS011;55859;55.710;12.464;2022-07-29T03:48:45;3.25;;;1.42;;
68854;SDS011;55859;55.710;12.464;2022-07-29T03:53:39;3.05;;;1.40;;
68854;SDS011;55859;55.710;12.464;2022-07-29T03:56:05;1.98;;;1.27;;
68854;SDS011;55859;55.710;12.464;2022-07-29T03:58:32;1.15;;;1.05;;
68854;SDS011;55859;55.710;12.464;2022-07-29T04:00:58;4.75;;;1.70;;
68854;SDS011;55859;55.710;12.464;2022-07-29T04:03:24;2.17;;;1.27;;
68854;SDS011;55859;55.710;12.464;2022-07-29T04:06:00;1.35;;;1.27;;
68854;SDS011;55859;55.710;12.464;2022-07-29T04:08:26;2.50;;;1.55;;
68854;SDS011;55859;55.710;12.464;2022-07-29T04:10:52;1.88;;;1.52;;
68854;SDS011;55859;55.710;12.464;2022-07-29T04:13:18;2.75;;;1.38;;
68854;SDS011;55859;55.710;12.464;2022-07-29T04:15:44;3.78;;;1.70;;
68854;SDS011;55859;55.710;12.464;2022-07-29T04:18:10;3.25;;;1.70;;
68854;SDS011;55859;55.710;12.464;2022-07-29T04:20:35;2.37;;;2.00;;
68854;SDS011;55859;55.710;12.464;2022-07-29T04:23:00;2.23;;;1.77;;
68854;SDS011;55859;55.710;12.464;2022-07-29T04:25:26;3.77;;;1.67;;
68854;SDS011;55859;55.710;12.464;2022-07-29T04:27:51;5.03;;;2.07;;
68854;SDS011;55859;55.710;12.464;2022-07-29T04:30:25;4.78;;;2.13;;
68854;SDS011;55859;55.710;12.464;2022-07-29T04:32:51;5.07;;;2.00;;
68854;SDS011;55859;55.710;12.464;2022-07-29T04:35:16;8.23;;;2.75;;
68854;SDS011;55859;55.710;12.464;2022-07-29T04:37:42;4.22;;;2.30;;
68854;SDS011;55859;55.710;12.464;2022-07-29T04:40:08;15.05;;;3.00;;
68854;SDS011;55859;55.710;12.464;2022-07-29T04:42:34;9.45;;;2.38;;
68854;SDS011;55859;55.710;12.464;2022-07-29T04:44:59;8.10;;;2.67;;
68854;SDS011;55859;55.710;12.464;2022-07-29T04:47:24;5.43;;;2.30;;
68854;SDS011;55859;55.710;12.464;2022-07-29T04:49:50;6.90;;;2.60;;
68854;SDS011;55859;55.710;12.464;2022-07-29T04:52:15;7.57;;;2.00;;
68854;SDS011;55859;55.710;12.464;2022-07-29T04:54:40;4.00;;;2.03;;
68854;SDS011;55859;55.710;12.464;2022-07-29T04:57:06;8.57;;;2.70;;
68854;SDS011;55859;55.710;12.464;2022-07-29T04:59:31;8.77;;;2.30;;
68854;SDS011;55859;55.710;12.464;2022-07-29T05:01:56;10.03;;;2.60;;
68854;SDS011;55859;55.710;12.464;2022-07-29T05:04:22;2.78;;;1.67;;
68854;SDS011;55859;55.710;12.464;2022-07-29T05:06:47;4.90;;;2.53;;
68854;SDS011;55859;55.710;12.464;2022-07-29T05:09:13;4.85;;;1.65;;
68854;SDS011;55859;55.710;12.464;2022-07-29T05:11:38;5.97;;;1.80;;
68854;SDS011;55859;55.710;12.464;2022-07-29T05:14:04;3.97;;;1.90;;
68854;SDS011;55859;55.710;12.464;2022-07-29T05:16:29;3.90;;;1.52;;
68854;SDS011;55859;55.710;12.464;2022-07-29T05:18:55;10.15;;;1.65;;
68854;SDS011;55859;55.710;12.464;2022-07-29T05:21:20;6.57;;;1.40;;
68854;SDS011;55859;55.710;12.464;2022-07-29T05:23:45;6.30;;;1.80;;
68854;SDS011;55859;55.710;12.464;2022-07-29T05:26:11;6.47;;;1.33;;
68854;SDS011;55859;55.710;12.464;2022-07-29T05:28:37;4.80;;;2.35;;
68854;SDS011;55859;55.710;12.464;2022-07-29T05:31:02;5.78;;;1.50;;
68854;SDS011;55859;55.710;12.464;2022-07-29T05:33:28;4.47;;;1.55;;
68854;SDS011;55859;55.710;12.464;2022-07-29T05:35:53;4.35;;;1.50;;
68854;SDS011;55859;55.710;12.464;2022-07-29T05:38:18;4.60;;;1.48;;
68854;SDS011;55859;55.710;12.464;2022-07-29T05:40:44;7.67;;;1.30;;
68854;SDS011;55859;55.710;12.464;2022-07-29T05:43:09;5.40;;;1.53;;
68854;SDS011;55859;55.710;12.464;2022-07-29T05:45:34;2.70;;;1.33;;
68854;SDS011;55859;55.710;12.464;2022-07-29T05:48:00;3.17;;;1.38;;
68854;SDS011;55859;55.710;12.464;2022-07-29T05:50:25;6.17;;;1.90;;
68854;SDS011;55859;55.710;12.464;2022-07-29T05:52:50;2.60;;;1.30;;
68854;SDS011;55859;55.710;12.464;2022-07-29T05:55:16;2.30;;;1.20;;
68854;SDS011;55859;55.710;12.464;2022-07-29T05:57:41;3.55;;;1.17;;
68854;SDS011;55859;55.710;12.464;2022-07-29T06:00:08;4.97;;;1.38;;
68854;SDS011;55859;55.710;12.464;2022-07-29T06:02:34;4.60;;;1.63;;
68854;SDS011;55859;55.710;12.464;2022-07-29T06:04:59;5.30;;;1.47;;
68854;SDS011;55859;55.710;12.464;2022-07-29T06:07:25;5.43;;;1.30;;
68854;SDS011;55859;55.710;12.464;2022-07-29T06:09:50;4.47;;;1.47;;
68854;SDS011;55859;55.710;12.464;2022-07-29T06:12:15;11.00;;;2.00;;
68854;SDS011;55859;55.710;12.464;2022-07-29T06:14:40;8.07;;;1.40;;
68854;SDS011;55859;55.710;12.464;2022-07-29T06:17:06;7.80;;;1.43;;
68854;SDS011;55859;55.710;12.464;2022-07-29T06:19:33;5.32;;;1.45;;
68854;SDS011;55859;55.710;12.464;2022-07-29T06:22:00;4.32;;;1.85;;
68854;SDS011;55859;55.710;12.464;2022-07-29T06:24:25;3.22;;;1.00;;
68854;SDS011;55859;55.710;12.464;2022-07-29T06:26:50;3.33;;;1.30;;
68854;SDS011;55859;55.710;12.464;2022-07-29T06:29:16;3.93;;;1.23;;
68854;SDS011;55859;55.710;12.464;2022-07-29T06:31:41;4.75;;;1.70;;
68854;SDS011;55859;55.710;12.464;2022-07-29T06:34:07;2.63;;;1.23;;
68854;SDS011;55859;55.710;12.464;2022-07-29T06:36:36;4.85;;;1.83;;
68854;SDS011;55859;55.710;12.464;2022-07-29T06:39:05;3.20;;;1.30;;
68854;SDS011;55859;55.710;12.464;2022-07-29T06:41:31;2.38;;;1.40;;
68854;SDS011;55859;55.710;12.464;2022-07-29T06:43:58;4.13;;;1.40;;
68854;SDS011;55859;55.710;12.464;2022-07-29T06:46:24;5.70;;;1.20;;
68854;SDS011;55859;55.710;12.464;2022-07-29T06:48:49;6.63;;;1.88;;
68854;SDS011;55859;55.710;12.464;2022-07-29T06:51:16;6.28;;;1.73;;
68854;SDS011;55859;55.710;12.464;2022-07-29T06:53:42;5.95;;;1.90;;
68854;SDS011;55859;55.710;12.464;2022-07-29T06:56:07;6.32;;;1.90;;
68854;SDS011;55859;55.710;12.464;2022-07-29T06:58:38;5.10;;;1.80;;
68854;SDS011;55859;55.710;12.464;2022-07-29T07:01:04;7.82;;;2.10;;
68854;SDS011;55859;55.710;12.464;2022-07-29T07:03:30;2.45;;;1.45;;
68854;SDS011;55859;55.710;12.464;2022-07-29T07:05:56;4.88;;;1.80;;
68854;SDS011;55859;55.710;12.464;2022-07-29T07:08:22;3.47;;;1.63;;
68854;SDS011;55859;55.710;12.464;2022-07-29T07:10:48;6.68;;;2.22;;
68854;SDS011;55859;55.710;12.464;2022-07-29T07:13:14;2.20;;;1.70;;
68854;SDS011;55859;55.710;12.464;2022-07-29T07:15:39;3.45;;;1.80;;
68854;SDS011;55859;55.710;12.464;2022-07-29T07:18:05;10.27;;;2.28;;
68854;SDS011;55859;55.710;12.464;2022-07-29T07:20:32;5.82;;;2.40;;
68854;SDS011;55859;55.710;12.464;2022-07-29T07:22:58;12.00;;;3.83;;
68854;SDS011;55859;55.710;12.464;2022-07-29T07:25:23;5.82;;;2.90;;
68854;SDS011;55859;55.710;12.464;2022-07-29T07:27:48;9.98;;;2.05;;
68854;SDS011;55859;55.710;12.464;2022-07-29T07:30:14;4.35;;;2.17;;
68854;SDS011;55859;55.710;12.464;2022-07-29T07:32:39;5.65;;;2.42;;
68854;SDS011;55859;55.710;12.464;2022-07-29T07:35:06;5.97;;;2.30;;
68854;SDS011;55859;55.710;12.464;2022-07-29T07:37:32;4.30;;;2.47;;
68854;SDS011;55859;55.710;12.464;2022-07-29T07:39:58;4.20;;;2.03;;
68854;SDS011;55859;55.710;12.464;2022-07-29T07:42:23;4.90;;;2.08;;
68854;SDS011;55859;55.710;12.464;2022-07-29T07:44:49;2.53;;;2.10;;
68854;SDS011;55859;55.710;12.464;2022-07-29T07:47:15;3.20;;;1.67;;
68854;SDS011;55859;55.710;12.464;2022-07-29T07:49:45;3.63;;;1.55;;
68854;SDS011;55859;55.710;12.464;2022-07-29T07:52:11;4.65;;;2.20;;
68854;SDS011;55859;55.710;12.464;2022-07-29T07:54:37;4.53;;;1.92;;
68854;SDS011;55859;55.710;12.464;2022-07-29T07:57:02;2.13;;;1.80;;
68854;SDS011;55859;55.710;12.464;2022-07-29T07:59:27;5.13;;;2.17;;
68854;SDS011;55859;55.710;12.464;2022-07-29T08:01:53;6.10;;;1.70;;
68854;SDS011;55859;55.710;12.464;2022-07-29T08:04:19;3.03;;;1.73;;
68854;SDS011;55859;55.710;12.464;2022-07-29T08:06:44;6.13;;;1.88;;
68854;SDS011;55859;55.710;12.464;2022-07-29T08:09:09;3.83;;;1.80;;
68854;SDS011;55859;55.710;12.464;2022-07-29T08:11:35;3.23;;;1.70;;
68854;SDS011;55859;55.710;12.464;2022-07-29T08:14:00;4.63;;;1.50;;
68854;SDS011;55859;55.710;12.464;2022-07-29T08:16:26;2.70;;;1.83;;
68854;SDS011;55859;55.710;12.464;2022-07-29T08:18:52;5.57;;;1.98;;
68854;SDS011;55859;55.710;12.464;2022-07-29T08:21:21;3.25;;;1.85;;
68854;SDS011;55859;55.710;12.464;2022-07-29T08:23:48;3.85;;;1.65;;
68854;SDS011;55859;55.710;12.464;2022-07-29T08:26:40;1.88;;;1.58;;
68854;SDS011;55859;55.710;12.464;2022-07-29T08:29:06;6.78;;;2.17;;
68854;SDS011;55859;55.710;12.464;2022-07-29T08:31:31;3.93;;;1.43;;
68854;SDS011;55859;55.710;12.464;2022-07-29T08:33:57;3.87;;;2.37;;
68854;SDS011;55859;55.710;12.464;2022-07-29T08:36:24;6.68;;;2.28;;
68854;SDS011;55859;55.710;12.464;2022-07-29T08:38:50;1.75;;;1.55;;
68854;SDS011;55859;55.710;12.464;2022-07-29T08:41:15;2.50;;;2.30;;
68854;SDS011;55859;55.710;12.464;2022-07-29T08:43:43;4.07;;;2.22;;
68854;SDS011;55859;55.710;12.464;2022-07-29T08:46:09;4.93;;;1.80;;
68854;SDS011;55859;55.710;12.464;2022-07-29T08:48:35;2.70;;;2.05;;
68854;SDS011;55859;55.710;12.464;2022-07-29T08:51:01;3.60;;;2.17;;
68854;SDS011;55859;55.710;12.464;2022-07-29T08:53:28;1.98;;;1.75;;
68854;SDS011;55859;55.710;12.464;2022-07-29T08:55:54;3.80;;;1.92;;
68854;SDS011;55859;55.710;12.464;2022-07-29T08:58:20;2.97;;;1.80;;
68854;SDS011;55859;55.710;12.464;2022-07-29T09:00:48;2.55;;;1.55;;
68854;SDS011;55859;55.710;12.464;2022-07-29T09:03:19;3.67;;;1.80;;
68854;SDS011;55859;55.710;12.464;2022-07-29T09:05:47;5.28;;;2.10;;
68854;SDS011;55859;55.710;12.464;2022-07-29T09:08:13;3.00;;;1.80;;
68854;SDS011;55859;55.710;12.464;2022-07-29T09:10:39;4.03;;;1.75;;
68854;SDS011;55859;55.710;12.464;2022-07-29T09:13:05;3.67;;;1.83;;
68854;SDS011;55859;55.710;12.464;2022-07-29T09:15:31;2.95;;;1.67;;
68854;SDS011;55859;55.710;12.464;2022-07-29T09:17:56;6.40;;;1.67;;
68854;SDS011;55859;55.710;12.464;2022-07-29T09:20:23;2.28;;;1.38;;
68854;SDS011;55859;55.710;12.464;2022-07-29T09:22:50;4.32;;;1.98;;
68854;SDS011;55859;55.710;12.464;2022-07-29T09:25:37;3.33;;;1.80;;
68854;SDS011;55859;55.710;12.464;2022-07-29T09:28:14;1.75;;;1.30;;
68854;SDS011;55859;55.710;12.464;2022-07-29T09:30:54;1.60;;;1.50;;
68854;SDS011;55859;55.710;12.464;2022-07-29T09:33:22;2.35;;;1.50;;
68854;SDS011;55859;55.710;12.464;2022-07-29T09:36:04;2.03;;;1.38;;
68854;SDS011;55859;55.710;12.464;2022-07-29T09:38:31;4.32;;;1.50;;
68854;SDS011;55859;55.710;12.464;2022-07-29T09:40:58;1.88;;;1.20;;
68854;SDS011;55859;55.710;12.464;2022-07-29T09:43:25;1.73;;;1.40;;
68854;SDS011;55859;55.710;12.464;2022-07-29T09:45:51;3.40;;;1.58;;
68854;SDS011;55859;55.710;12.464;2022-07-29T09:48:17;3.20;;;1.38;;
68854;SDS011;55859;55.710;12.464;2022-07-29T09:50:47;3.33;;;1.67;;
68854;SDS011;55859;55.710;12.464;2022-07-29T09:53:30;2.92;;;1.90;;
68854;SDS011;55859;55.710;12.464;2022-07-29T09:55:57;1.33;;;1.05;;
68854;SDS011;55859;55.710;12.464;2022-07-29T09:58:23;3.72;;;1.70;;
68854;SDS011;55859;55.710;12.464;2022-07-29T10:00:49;3.25;;;1.15;;
68854;SDS011;55859;55.710;12.464;2022-07-29T10:03:15;2.38;;;1.20;;
68854;SDS011;55859;55.710;12.464;2022-07-29T10:05:42;3.28;;;1.10;;
68854;SDS011;55859;55.710;12.464;2022-07-29T10:08:09;1.98;;;1.15;;
68854;SDS011;55859;55.710;12.464;2022-07-29T10:10:38;1.85;;;1.17;;
68854;SDS011;55859;55.710;12.464;2022-07-29T10:13:06;2.17;;;1.27;;
68854;SDS011;55859;55.710;12.464;2022-07-29T10:15:39;8.32;;;1.80;;
68854;SDS011;55859;55.710;12.464;2022-07-29T10:18:08;1.27;;;1.17;;
68854;SDS011;55859;55.710;12.464;2022-07-29T10:20:34;7.05;;;1.60;;
68854;SDS011;55859;55.710;12.464;2022-07-29T10:23:00;2.53;;;1.63;;
68854;SDS011;55859;55.710;12.464;2022-07-29T10:25:26;3.25;;;1.40;;
68854;SDS011;55859;55.710;12.464;2022-07-29T10:27:52;2.83;;;1.30;;
68854;SDS011;55859;55.710;12.464;2022-07-29T10:30:18;2.53;;;1.27;;
68854;SDS011;55859;55.710;12.464;2022-07-29T10:44:20;0.80;;;0.60;;
68854;SDS011;55859;55.710;12.464;2022-07-29T10:46:47;3.13;;;0.80;;
68854;SDS011;55859;55.710;12.464;2022-07-29T10:49:14;1.80;;;0.80;;
68854;SDS011;55859;55.710;12.464;2022-07-29T10:54:19;2.20;;;0.73;;
68854;SDS011;55859;55.710;12.464;2022-07-29T10:59:42;0.88;;;0.77;;
68854;SDS011;55859;55.710;12.464;2022-07-29T11:07:25;3.40;;;1.15;;
68854;SDS011;55859;55.710;12.464;2022-07-29T11:23:31;2.85;;;0.65;;
68854;SDS011;55859;55.710;12.464;2022-07-29T11:28:35;1.65;;;0.60;;
68854;SDS011;55859;55.710;12.464;2022-07-29T11:31:34;2.88;;;0.82;;
68854;SDS011;55859;55.710;12.464;2022-07-29T11:34:23;3.47;;;0.90;;
68854;SDS011;55859;55.710;12.464;2022-07-29T11:39:34;1.02;;;0.70;;
68854;SDS011;55859;55.710;12.464;2022-07-29T11:47:19;1.20;;;0.80;;
68854;SDS011;55859;55.710;12.464;2022-07-29T11:49:46;1.02;;;0.50;;
68854;SDS011;55859;55.710;12.464;2022-07-29T11:52:12;1.67;;;1.25;;
68854;SDS011;55859;55.710;12.464;2022-07-29T11:54:38;4.75;;;0.70;;
68854;SDS011;55859;55.710;12.464;2022-07-29T11:57:07;1.58;;;0.75;;
68854;SDS011;55859;55.710;12.464;2022-07-29T11:59:40;3.00;;;0.90;;
68854;SDS011;55859;55.710;12.464;2022-07-29T12:02:07;1.08;;;0.70;;
68854;SDS011;55859;55.710;12.464;2022-07-29T12:04:33;3.65;;;1.20;;
68854;SDS011;55859;55.710;12.464;2022-07-29T12:06:59;2.30;;;0.98;;
68854;SDS011;55859;55.710;12.464;2022-07-29T12:09:25;2.60;;;0.90;;
68854;SDS011;55859;55.710;12.464;2022-07-29T12:11:56;3.30;;;0.73;;
68854;SDS011;55859;55.710;12.464;2022-07-29T12:16:50;1.25;;;0.80;;
68854;SDS011;55859;55.710;12.464;2022-07-29T12:19:16;1.02;;;0.80;;
68854;SDS011;55859;55.710;12.464;2022-07-29T12:21:45;1.10;;;0.67;;
68854;SDS011;55859;55.710;12.464;2022-07-29T12:24:14;0.70;;;0.57;;
68854;SDS011;55859;55.710;12.464;2022-07-29T12:26:53;2.47;;;0.50;;
68854;SDS011;55859;55.710;12.464;2022-07-29T12:29:20;4.57;;;0.63;;
68854;SDS011;55859;55.710;12.464;2022-07-29T12:31:46;3.25;;;1.13;;
68854;SDS011;55859;55.710;12.464;2022-07-29T12:34:19;4.85;;;0.77;;
68854;SDS011;55859;55.710;12.464;2022-07-29T12:36:46;2.50;;;0.90;;
68854;SDS011;55859;55.710;12.464;2022-07-29T12:39:12;2.92;;;1.05;;
68854;SDS011;55859;55.710;12.464;2022-07-29T12:41:39;1.88;;;0.50;;
68854;SDS011;55859;55.710;12.464;2022-07-29T12:44:05;3.22;;;0.85;;
68854;SDS011;55859;55.710;12.464;2022-07-29T12:46:30;3.90;;;0.98;;
68854;SDS011;55859;55.710;12.464;2022-07-29T12:48:56;1.23;;;0.70;;
68854;SDS011;55859;55.710;12.464;2022-07-29T12:51:29;2.03;;;0.85;;
68854;SDS011;55859;55.710;12.464;2022-07-29T12:54:11;2.17;;;0.80;;
68854;SDS011;55859;55.710;12.464;2022-07-29T12:56:38;2.95;;;0.98;;
68854;SDS011;55859;55.710;12.464;2022-07-29T12:59:15;1.90;;;0.75;;
68854;SDS011;55859;55.710;12.464;2022-07-29T13:01:45;1.00;;;0.82;;
68854;SDS011;55859;55.710;12.464;2022-07-29T13:06:59;3.00;;;1.00;;
68854;SDS011;55859;55.710;12.464;2022-07-29T13:09:35;6.35;;;0.82;;
68854;SDS011;55859;55.710;12.464;2022-07-29T13:12:05;4.78;;;1.45;;
68854;SDS011;55859;55.710;12.464;2022-07-29T13:14:33;1.80;;;0.70;;
68854;SDS011;55859;55.710;12.464;2022-07-29T13:17:01;2.05;;;0.73;;
68854;SDS011;55859;55.710;12.464;2022-07-29T13:22:06;2.25;;;0.80;;
68854;SDS011;55859;55.710;12.464;2022-07-29T13:24:33;3.97;;;1.13;;
68854;SDS011;55859;55.710;12.464;2022-07-29T13:27:09;3.03;;;1.45;;
68854;SDS011;55859;55.710;12.464;2022-07-29T13:29:35;3.15;;;0.80;;
68854;SDS011;55859;55.710;12.464;2022-07-29T13:32:02;3.58;;;1.08;;
68854;SDS011;55859;55.710;12.464;2022-07-29T13:34:27;1.55;;;0.82;;
68854;SDS011;55859;55.710;12.464;2022-07-29T13:36:53;2.17;;;1.00;;
68854;SDS011;55859;55.710;12.464;2022-07-29T13:39:18;1.87;;;0.80;;
68854;SDS011;55859;55.710;12.464;2022-07-29T13:41:43;3.15;;;0.80;;
68854;SDS011;55859;55.710;12.464;2022-07-29T13:44:09;2.83;;;1.07;;
68854;SDS011;55859;55.710;12.464;2022-07-29T13:46:34;7.55;;;1.00;;
68854;SDS011;55859;55.710;12.464;2022-07-29T13:49:00;1.33;;;0.88;;
68854;SDS011;55859;55.710;12.464;2022-07-29T13:51:25;3.97;;;1.60;;
68854;SDS011;55859;55.710;12.464;2022-07-29T13:53:51;1.38;;;0.90;;
68854;SDS011;55859;55.710;12.464;2022-07-29T13:56:16;1.57;;;0.70;;
68854;SDS011;55859;55.710;12.464;2022-07-29T13:58:41;13.33;;;1.17;;
68854;SDS011;55859;55.710;12.464;2022-07-29T14:01:06;3.77;;;0.70;;
68854;SDS011;55859;55.710;12.464;2022-07-29T14:03:32;1.23;;;0.83;;
68854;SDS011;55859;55.710;12.464;2022-07-29T14:05:57;1.52;;;0.93;;
68854;SDS011;55859;55.710;12.464;2022-07-29T14:08:24;1.38;;;0.80;;
68854;SDS011;55859;55.710;12.464;2022-07-29T14:10:50;1.37;;;0.80;;
68854;SDS011;55859;55.710;12.464;2022-07-29T14:13:15;1.20;;;0.70;;
68854;SDS011;55859;55.710;12.464;2022-07-29T14:15:40;1.77;;;0.70;;
68854;SDS011;55859;55.710;12.464;2022-07-29T14:18:05;2.40;;;0.70;;
68854;SDS011;55859;55.710;12.464;2022-07-29T14:20:31;3.50;;;0.83;;
68854;SDS011;55859;55.710;12.464;2022-07-29T14:22:56;2.93;;;1.03;;
68854;SDS011;55859;55.710;12.464;2022-07-29T14:25:22;1.23;;;0.90;;
68854;SDS011;55859;55.710;12.464;2022-07-29T14:27:48;3.20;;;0.80;;
68854;SDS011;55859;55.710;12.464;2022-07-29T14:30:13;2.55;;;0.60;;
68854;SDS011;55859;55.710;12.464;2022-07-29T14:32:39;1.65;;;0.65;;
68854;SDS011;55859;55.710;12.464;2022-07-29T14:35:05;5.28;;;0.80;;
68854;SDS011;55859;55.710;12.464;2022-07-29T14:37:30;1.10;;;0.85;;
68854;SDS011;55859;55.710;12.464;2022-07-29T14:39:56;2.37;;;1.00;;
68854;SDS011;55859;55.710;12.464;2022-07-29T14:42:24;1.58;;;0.88;;
68854;SDS011;55859;55.710;12.464;2022-07-29T14:44:49;2.38;;;1.10;;
68854;SDS011;55859;55.710;12.464;2022-07-29T14:47:15;3.45;;;0.70;;
68854;SDS011;55859;55.710;12.464;2022-07-29T14:49:40;8.13;;;0.83;;
68854;SDS011;55859;55.710;12.464;2022-07-29T14:52:05;1.60;;;0.90;;
68854;SDS011;55859;55.710;12.464;2022-07-29T14:54:31;2.80;;;0.90;;
68854;SDS011;55859;55.710;12.464;2022-07-29T14:56:57;0.85;;;0.60;;
68854;SDS011;55859;55.710;12.464;2022-07-29T14:59:22;1.93;;;0.90;;
68854;SDS011;55859;55.710;12.464;2022-07-29T15:01:48;1.88;;;0.77;;
68854;SDS011;55859;55.710;12.464;2022-07-29T15:04:14;1.38;;;0.75;;
68854;SDS011;55859;55.710;12.464;2022-07-29T15:06:40;2.17;;;0.65;;
68854;SDS011;55859;55.710;12.464;2022-07-29T15:09:05;1.70;;;0.80;;
68854;SDS011;55859;55.710;12.464;2022-07-29T15:11:30;1.90;;;0.80;;
68854;SDS011;55859;55.710;12.464;2022-07-29T15:13:56;1.38;;;0.70;;
68854;SDS011;55859;55.710;12.464;2022-07-29T15:16:21;2.83;;;0.90;;
68854;SDS011;55859;55.710;12.464;2022-07-29T15:18:46;2.27;;;1.00;;
68854;SDS011;55859;55.710;12.464;2022-07-29T15:21:11;4.17;;;1.10;;
68854;SDS011;55859;55.710;12.464;2022-07-29T15:23:37;3.15;;;1.25;;
68854;SDS011;55859;55.710;12.464;2022-07-29T15:26:03;1.83;;;0.85;;
68854;SDS011;55859;55.710;12.464;2022-07-29T15:28:29;1.13;;;0.90;;
68854;SDS011;55859;55.710;12.464;2022-07-29T15:30:54;3.42;;;0.90;;
68854;SDS011;55859;55.710;12.464;2022-07-29T15:33:20;3.20;;;0.80;;
68854;SDS011;55859;55.710;12.464;2022-07-29T15:35:45;3.53;;;0.90;;
68854;SDS011;55859;55.710;12.464;2022-07-29T15:38:10;2.43;;;0.90;;
68854;SDS011;55859;55.710;12.464;2022-07-29T15:40:36;3.70;;;1.10;;
68854;SDS011;55859;55.710;12.464;2022-07-29T15:43:08;2.97;;;1.20;;
68854;SDS011;55859;55.710;12.464;2022-07-29T15:45:35;4.07;;;1.00;;
68854;SDS011;55859;55.710;12.464;2022-07-29T15:48:04;3.00;;;1.50;;
68854;SDS011;55859;55.710;12.464;2022-07-29T15:50:30;2.17;;;1.10;;
68854;SDS011;55859;55.710;12.464;2022-07-29T15:52:55;2.23;;;1.07;;
68854;SDS011;55859;55.710;12.464;2022-07-29T15:55:20;1.43;;;0.90;;
68854;SDS011;55859;55.710;12.464;2022-07-29T15:57:46;2.80;;;0.90;;
68854;SDS011;55859;55.710;12.464;2022-07-29T16:00:11;3.23;;;1.17;;